Time;durP1;ratioP1;P1;durP2;ratioP2;P2;SDS_P1;SDS_P2;PMS_P1;PMS_P2;Temp;Humidity;BMP_temperature;BMP_pressure;BME280_temperature;BME280_humidity;BME280_pressure;Samples;Min_cycle;Max_cycle;Signal;HPM_P1;HPM_P2
2021/01/30 00:00:01;;;;;;;5.72;5.22;;;1.60;99.90;;;;;;5077108;28;20202;-74
2021/01/30 00:02:28;;;;;;;7.28;6.75;;;1.60;99.90;;;;;;5064199;28;20255;-75
2021/01/30 00:04:54;;;;;;;6.40;5.90;;;1.60;99.90;;;;;;5060966;28;20225;-74
2021/01/30 00:07:21;;;;;;;7.25;6.65;;;1.60;99.90;;;;;;5057723;28;20785;-75
2021/01/30 00:09:49;;;;;;;6.47;5.95;;;1.70;99.90;;;;;;5059861;28;20589;-75
2021/01/30 00:12:16;;;;;;;5.80;5.38;;;1.70;99.90;;;;;;5059528;28;20228;-74
2021/01/30 00:14:43;;;;;;;7.30;6.70;;;1.60;99.90;;;;;;5055911;28;20253;-75
2021/01/30 00:17:11;;;;;;;5.95;5.45;;;1.70;99.90;;;;;;5060520;28;20218;-75
2021/01/30 00:19:38;;;;;;;6.28;5.88;;;1.70;99.90;;;;;;5057657;28;20751;-76
2021/01/30 00:22:07;;;;;;;6.13;5.63;;;1.70;99.90;;;;;;5063403;28;20222;-75
2021/01/30 00:24:33;;;;;;;6.07;5.57;;;1.80;99.90;;;;;;5056705;28;20599;-75
2021/01/30 00:27:02;;;;;;;6.85;6.35;;;1.90;99.90;;;;;;5058393;28;20540;-75
2021/01/30 00:29:31;;;;;;;6.18;5.68;;;2.00;99.90;;;;;;5061742;28;20217;-75
2021/01/30 00:31:58;;;;;;;6.15;5.65;;;2.00;99.90;;;;;;5057557;28;20279;-76
2021/01/30 00:34:28;;;;;;;5.80;5.40;;;2.00;99.90;;;;;;5063211;28;20217;-75
2021/01/30 00:36:56;;;;;;;5.45;5.05;;;2.00;99.90;;;;;;5062782;28;20232;-76
2021/01/30 00:39:24;;;;;;;5.70;5.28;;;2.00;99.90;;;;;;5059631;28;20223;-75
2021/01/30 00:41:50;;;;;;;5.68;5.28;;;2.00;99.90;;;;;;5057670;28;20226;-74
2021/01/30 00:44:18;;;;;;;6.20;5.80;;;2.00;99.90;;;;;;5058572;28;20741;-74
2021/01/30 00:46:48;;;;;;;6.28;5.85;;;2.00;99.90;;;;;;5053820;28;20241;-75
2021/01/30 00:49:15;;;;;;;6.50;6.00;;;1.90;99.90;;;;;;5058476;28;20833;-75
2021/01/30 00:51:43;;;;;;;6.30;5.90;;;1.80;99.90;;;;;;5060686;28;20242;-75
2021/01/30 00:54:10;;;;;;;6.43;5.93;;;1.80;99.90;;;;;;5067150;28;20605;-75
2021/01/30 00:56:36;;;;;;;5.93;5.53;;;1.80;99.90;;;;;;5062300;28;20621;-76
2021/01/30 00:59:03;;;;;;;5.88;5.38;;;1.80;99.90;;;;;;5056883;28;20221;-75
2021/01/30 01:01:36;;;;;;;5.45;5.10;;;1.90;99.90;;;;;;5061152;28;20233;-75
2021/01/30 01:04:03;;;;;;;6.22;5.82;;;1.90;99.90;;;;;;5059621;28;20222;-75
2021/01/30 01:06:30;;;;;;;6.20;5.70;;;2.00;99.90;;;;;;5058578;28;20228;-75
2021/01/30 01:08:57;;;;;;;5.97;5.47;;;2.00;99.90;;;;;;5061105;28;20224;-75
2021/01/30 01:11:24;;;;;;;6.65;6.15;;;1.90;99.90;;;;;;5055946;28;20716;-75
2021/01/30 01:13:51;;;;;;;6.65;6.15;;;1.80;99.90;;;;;;5058505;28;20463;-75
2021/01/30 01:16:17;;;;;;;7.53;6.93;;;1.80;99.90;;;;;;5057800;28;20222;-75
2021/01/30 01:18:45;;;;;;;7.00;6.40;;;1.80;99.90;;;;;;5060146;28;20256;-74
2021/01/30 01:21:12;;;;;;;5.88;5.47;;;1.80;99.90;;;;;;5057290;28;20282;-75
2021/01/30 01:23:40;;;;;;;7.57;6.97;;;1.80;99.90;;;;;;5056251;28;20236;-74
2021/01/30 01:26:08;;;;;;;7.30;6.70;;;1.70;99.90;;;;;;5059291;28;20222;-75
2021/01/30 01:28:35;;;;;;;6.82;6.22;;;1.70;99.90;;;;;;5053255;28;20219;-75
2021/01/30 01:31:03;;;;;;;7.13;6.53;;;1.70;99.90;;;;;;5059972;28;20230;-75
2021/01/30 01:33:29;;;;;;;7.13;6.50;;;1.60;99.90;;;;;;5062071;28;20222;-75
2021/01/30 01:35:56;;;;;;;6.57;6.00;;;1.50;99.90;;;;;;5061576;28;20225;-75
2021/01/30 01:38:23;;;;;;;7.28;6.68;;;1.40;99.90;;;;;;5066015;28;20708;-75
2021/01/30 01:40:50;;;;;;;7.97;7.38;;;1.40;99.90;;;;;;5061173;28;20708;-75
2021/01/30 01:43:21;;;;;;;7.18;6.68;;;1.40;99.90;;;;;;5062269;28;20225;-75
2021/01/30 01:46:06;;;;;;;6.80;6.30;;;1.40;99.90;;;;;;5078076;28;20311;-75
2021/01/30 01:48:37;;;;;;;6.70;6.20;;;1.50;99.90;;;;;;5058496;28;20274;-75
2021/01/30 01:51:06;;;;;;;6.68;6.18;;;1.50;99.90;;;;;;5061481;28;20222;-75
2021/01/30 01:53:36;;;;;;;7.30;6.72;;;1.60;99.90;;;;;;5060272;28;20222;-75
2021/01/30 01:56:09;;;;;;;7.82;7.13;;;1.60;99.90;;;;;;5060263;28;20217;-75
2021/01/30 01:58:42;;;;;;;7.63;7.03;;;1.60;99.90;;;;;;5064569;28;20247;-74
2021/01/30 02:01:09;;;;;;;6.63;6.13;;;1.70;99.90;;;;;;5059736;28;20225;-75
2021/01/30 02:03:37;;;;;;;6.80;6.28;;;1.60;99.90;;;;;;5063322;28;20221;-75
2021/01/30 02:06:04;;;;;;;6.57;6.07;;;1.60;99.90;;;;;;5060636;28;20222;-75
2021/01/30 02:08:33;;;;;;;6.25;5.75;;;1.60;99.90;;;;;;5066912;28;20238;-74
2021/01/30 02:10:59;;;;;;;6.68;6.18;;;1.70;99.90;;;;;;5058958;28;20224;-75
2021/01/30 02:13:28;;;;;;;6.07;5.68;;;1.70;99.90;;;;;;5065157;28;20230;-75
2021/01/30 02:16:03;;;;;;;6.03;5.63;;;1.70;99.90;;;;;;5061060;28;20225;-74
2021/01/30 02:18:40;;;;;;;5.30;4.90;;;1.80;99.90;;;;;;5062621;28;20221;-75
2021/01/30 02:21:55;;;;;;;5.25;4.88;;;1.90;99.90;;;;;;5063338;28;20307;-75
2021/01/30 02:25:04;;;;;;;5.63;5.22;;;2.00;99.90;;;;;;5031537;28;20218;-76
2021/01/30 02:28:02;;;;;;;5.90;5.50;;;1.90;99.90;;;;;;5016724;28;20229;-75
2021/01/30 02:31:08;;;;;;;5.43;5.07;;;1.90;99.90;;;;;;5056119;28;20300;-75
2021/01/30 02:34:13;;;;;;;5.55;5.15;;;1.90;99.90;;;;;;5040822;28;20221;-74
2021/01/30 02:36:47;;;;;;;6.10;5.70;;;1.90;99.90;;;;;;5049348;28;20268;-73
2021/01/30 02:39:18;;;;;;;5.65;5.25;;;1.90;99.90;;;;;;5075746;28;20229;-75
2021/01/30 02:41:51;;;;;;;5.70;5.20;;;1.90;99.90;;;;;;5057949;28;20229;-73
2021/01/30 02:44:20;;;;;;;5.63;5.22;;;1.90;99.90;;;;;;5069729;28;20257;-74
2021/01/30 02:46:50;;;;;;;4.85;4.55;;;1.90;99.90;;;;;;5060651;28;20225;-73
2021/01/30 02:49:22;;;;;;;5.47;5.05;;;1.90;99.90;;;;;;5060551;28;20230;-72
2021/01/30 02:51:56;;;;;;;5.65;5.25;;;1.90;99.90;;;;;;5059764;28;20230;-73
2021/01/30 02:54:23;;;;;;;5.13;4.82;;;1.90;99.90;;;;;;5059225;28;20221;-72
2021/01/30 02:56:55;;;;;;;6.38;5.88;;;2.00;99.90;;;;;;5060027;28;20214;-74
2021/01/30 02:59:25;;;;;;;5.68;5.22;;;2.00;99.90;;;;;;5059205;28;20592;-73
2021/01/30 03:01:52;;;;;;;5.72;5.28;;;2.00;99.90;;;;;;5057375;28;20222;-72
2021/01/30 03:04:22;;;;;;;5.60;5.20;;;1.90;99.90;;;;;;5058830;28;20249;-74
2021/01/30 03:07:34;;;;;;;4.75;4.45;;;1.90;99.90;;;;;;5058761;28;20252;-73
2021/01/30 03:10:09;;;;;;;5.75;5.35;;;1.90;99.90;;;;;;5041477;28;20322;-73
2021/01/30 03:12:44;;;;;;;5.70;5.18;;;2.00;99.90;;;;;;5063156;28;20228;-74
2021/01/30 03:15:18;;;;;;;5.50;5.20;;;2.00;99.90;;;;;;5063860;28;20233;-73
2021/01/30 03:17:46;;;;;;;5.38;4.97;;;2.00;99.90;;;;;;5060271;28;20220;-75
2021/01/30 03:20:15;;;;;;;5.03;4.63;;;2.00;99.90;;;;;;5056382;28;20232;-73
2021/01/30 03:22:43;;;;;;;5.13;4.82;;;1.90;99.90;;;;;;5061314;28;22214;-73
2021/01/30 03:25:14;;;;;;;4.53;4.20;;;1.90;99.90;;;;;;5062530;28;20274;-73
2021/01/30 03:27:40;;;;;;;4.88;4.57;;;1.90;99.90;;;;;;5062319;28;20217;-73
2021/01/30 03:30:09;;;;;;;4.75;4.45;;;1.80;99.90;;;;;;5068454;28;20684;-76
2021/01/30 03:32:36;;;;;;;4.63;4.32;;;1.90;99.90;;;;;;5073298;28;20226;-75
2021/01/30 03:35:05;;;;;;;4.55;4.25;;;1.90;99.90;;;;;;5062846;28;20310;-74
2021/01/30 03:37:32;;;;;;;4.13;3.92;;;1.80;99.90;;;;;;5060326;28;20278;-75
2021/01/30 03:39:59;;;;;;;4.30;4.10;;;1.90;99.90;;;;;;5060894;28;20230;-74
2021/01/30 03:42:26;;;;;;;4.95;4.65;;;1.80;99.90;;;;;;5064990;28;20310;-73
2021/01/30 03:44:53;;;;;;;4.50;4.20;;;1.80;99.90;;;;;;5058391;28;20279;-73
2021/01/30 03:47:19;;;;;;;4.03;3.83;;;1.80;99.90;;;;;;5062166;28;21776;-75
2021/01/30 03:49:46;;;;;;;4.07;3.88;;;1.90;99.90;;;;;;5062041;28;20728;-73
2021/01/30 03:52:13;;;;;;;3.92;3.72;;;1.80;99.90;;;;;;5066729;28;20226;-73
2021/01/30 03:54:39;;;;;;;3.72;3.53;;;1.80;99.90;;;;;;5062410;28;20222;-73
2021/01/30 03:57:06;;;;;;;4.00;3.80;;;1.90;99.90;;;;;;5060028;28;20222;-74
2021/01/30 03:59:35;;;;;;;4.07;3.78;;;1.90;99.90;;;;;;5056344;28;20230;-73
2021/01/30 04:02:01;;;;;;;4.45;4.25;;;2.00;99.90;;;;;;5064499;28;20365;-73
2021/01/30 04:04:28;;;;;;;6.45;5.95;;;2.00;99.90;;;;;;5062085;28;20743;-74
2021/01/30 04:06:54;;;;;;;7.20;6.53;;;1.80;99.90;;;;;;5062548;28;20237;-74
2021/01/30 04:09:22;;;;;;;8.00;7.40;;;1.60;99.90;;;;;;5065386;28;20232;-73
2021/01/30 04:11:50;;;;;;;7.72;7.13;;;1.50;99.90;;;;;;5061758;28;20231;-74
2021/01/30 04:14:18;;;;;;;7.22;6.63;;;1.40;99.90;;;;;;5065257;28;20795;-73
2021/01/30 04:16:45;;;;;;;6.22;5.72;;;1.40;99.90;;;;;;5063825;28;20227;-73
2021/01/30 04:19:12;;;;;;;6.82;6.32;;;1.40;99.90;;;;;;5056774;28;20221;-74
2021/01/30 04:21:39;;;;;;;6.63;6.13;;;1.40;99.90;;;;;;5058680;28;20676;-74
2021/01/30 04:24:07;;;;;;;5.78;5.38;;;1.40;99.90;;;;;;5070796;28;20222;-74
2021/01/30 04:26:33;;;;;;;6.63;6.03;;;1.40;99.90;;;;;;5063623;28;20226;-73
2021/01/30 04:29:00;;;;;;;5.53;5.13;;;1.40;99.90;;;;;;5059770;28;20280;-74
2021/01/30 04:31:27;;;;;;;5.70;5.30;;;1.40;99.90;;;;;;5060103;28;20222;-74
2021/01/30 04:33:54;;;;;;;5.13;4.82;;;1.40;99.90;;;;;;5060322;28;20217;-72
2021/01/30 04:36:22;;;;;;;5.65;5.25;;;1.50;99.90;;;;;;5060981;28;20214;-75
2021/01/30 04:38:49;;;;;;;6.05;5.65;;;1.50;99.90;;;;;;5069600;28;20226;-73
2021/01/30 04:41:27;;;;;;;6.00;5.60;;;1.50;99.90;;;;;;5058962;28;20232;-74
2021/01/30 04:44:00;;;;;;;5.10;4.70;;;1.50;99.90;;;;;;5056253;28;20230;-73
2021/01/30 04:46:39;;;;;;;5.45;5.05;;;1.50;99.90;;;;;;5057179;28;20226;-74
2021/01/30 04:49:13;;;;;;;4.93;4.63;;;1.50;99.90;;;;;;5058842;28;20213;-75
2021/01/30 04:51:47;;;;;;;5.85;5.45;;;1.50;99.90;;;;;;5055558;28;20731;-72
2021/01/30 04:54:29;;;;;;;5.32;4.93;;;1.50;99.90;;;;;;5057143;28;20232;-74
2021/01/30 04:57:10;;;;;;;4.32;4.13;;;1.60;99.90;;;;;;5054915;28;20217;-73
2021/01/30 04:59:49;;;;;;;4.80;4.50;;;1.70;99.90;;;;;;5055608;28;20214;-75
2021/01/30 05:02:30;;;;;;;4.43;4.13;;;1.70;99.90;;;;;;5060248;28;20222;-73
2021/01/30 05:04:59;;;;;;;4.60;4.30;;;1.70;99.90;;;;;;5057359;28;20218;-73
2021/01/30 05:07:31;;;;;;;4.13;3.92;;;1.70;99.90;;;;;;5055698;28;20783;-73
2021/01/30 05:10:01;;;;;;;3.75;3.55;;;1.70;99.90;;;;;;5058323;28;20223;-74
2021/01/30 05:12:36;;;;;;;3.95;3.75;;;1.80;99.90;;;;;;5061275;28;20218;-73
2021/01/30 05:15:15;;;;;;;3.63;3.42;;;1.80;99.90;;;;;;5059804;28;20217;-74
2021/01/30 05:17:52;;;;;;;3.80;3.60;;;1.90;99.90;;;;;;5074001;28;21688;-74
2021/01/30 05:20:21;;;;;;;3.97;3.78;;;1.90;99.90;;;;;;5059164;28;20704;-75
2021/01/30 05:22:48;;;;;;;4.28;4.07;;;1.90;99.90;;;;;;5058590;28;20230;-74
2021/01/30 05:25:17;;;;;;;3.90;3.70;;;2.00;99.90;;;;;;5055960;28;20229;-74
2021/01/30 05:27:58;;;;;;;3.58;3.40;;;2.00;99.90;;;;;;5057218;28;20237;-73
2021/01/30 05:30:33;;;;;;;3.63;3.42;;;2.00;99.90;;;;;;5056013;28;20221;-74
2021/01/30 05:33:15;;;;;;;3.40;3.30;;;2.00;99.90;;;;;;5055933;28;20311;-74
2021/01/30 05:35:50;;;;;;;3.80;3.60;;;2.00;99.90;;;;;;5051454;28;20225;-73
2021/01/30 05:38:31;;;;;;;4.10;3.90;;;2.00;99.90;;;;;;5055349;28;20238;-74
2021/01/30 05:41:01;;;;;;;4.50;4.18;;;2.00;99.90;;;;;;5054974;28;20234;-73
2021/01/30 05:43:37;;;;;;;6.28;5.78;;;1.90;99.90;;;;;;5055277;28;20229;-74
2021/01/30 05:46:04;;;;;;;6.70;6.20;;;1.60;99.90;;;;;;5057456;28;20221;-75
2021/01/30 05:48:39;;;;;;;6.82;6.22;;;1.30;99.90;;;;;;5059616;28;20232;-73
2021/01/30 05:51:13;;;;;;;6.00;5.60;;;1.20;99.90;;;;;;5057752;28;20278;-73
2021/01/30 05:53:43;;;;;;;5.60;5.20;;;1.10;99.90;;;;;;5056371;28;20279;-74
2021/01/30 05:56:09;;;;;;;5.60;5.25;;;1.10;99.90;;;;;;5061252;28;20291;-73
2021/01/30 05:58:41;;;;;;;5.28;4.93;;;1.20;99.90;;;;;;5058607;28;20651;-75
2021/01/30 06:01:24;;;;;;;5.32;4.93;;;1.20;99.90;;;;;;5055011;28;20229;-73
2021/01/30 06:04:01;;;;;;;4.53;4.22;;;1.20;99.90;;;;;;5060479;28;20339;-74
2021/01/30 06:06:32;;;;;;;4.90;4.50;;;1.30;99.90;;;;;;5055907;28;20217;-73
2021/01/30 06:09:02;;;;;;;5.50;5.10;;;1.30;99.90;;;;;;5060530;28;20252;-74
2021/01/30 06:11:39;;;;;;;4.80;4.50;;;1.30;99.90;;;;;;5075471;28;20266;-74
2021/01/30 06:14:07;;;;;;;5.20;4.88;;;1.30;99.90;;;;;;5057178;28;20222;-74
2021/01/30 06:16:40;;;;;;;5.55;5.15;;;1.40;99.90;;;;;;5058074;28;20272;-73
2021/01/30 06:19:15;;;;;;;5.03;4.53;;;1.40;99.90;;;;;;5058232;28;20586;-73
2021/01/30 06:21:43;;;;;;;4.95;4.55;;;1.40;99.90;;;;;;5058789;28;20299;-73
2021/01/30 06:24:12;;;;;;;4.95;4.65;;;1.40;99.90;;;;;;5066025;28;20229;-75
2021/01/30 06:26:46;;;;;;;4.97;4.68;;;1.40;99.90;;;;;;5063766;28;20218;-73
2021/01/30 06:29:29;;;;;;;5.55;5.15;;;1.40;99.90;;;;;;5059562;28;20210;-74
2021/01/30 06:32:07;;;;;;;5.43;5.03;;;1.40;99.90;;;;;;5058789;28;20913;-73
2021/01/30 06:34:37;;;;;;;5.18;4.88;;;1.40;99.90;;;;;;5057748;28;20227;-73
2021/01/30 06:37:09;;;;;;;4.60;4.30;;;1.40;99.90;;;;;;5055720;28;20225;-75
2021/01/30 06:39:40;;;;;;;4.65;4.35;;;1.30;99.90;;;;;;5038137;28;20235;-75
2021/01/30 06:42:10;;;;;;;4.22;4.03;;;1.30;99.90;;;;;;5036924;28;20233;-74
2021/01/30 06:44:38;;;;;;;3.63;3.42;;;1.30;99.90;;;;;;5056256;28;20223;-75
2021/01/30 06:47:15;;;;;;;4.88;4.57;;;1.30;99.90;;;;;;5057382;28;20286;-73
2021/01/30 06:49:45;;;;;;;4.93;4.63;;;1.20;99.90;;;;;;5056933;28;20217;-74
2021/01/30 06:52:21;;;;;;;5.88;5.47;;;1.20;99.90;;;;;;5061531;28;20225;-73
2021/01/30 06:54:48;;;;;;;6.30;5.85;;;1.10;99.90;;;;;;5058916;28;20711;-74
2021/01/30 06:57:20;;;;;;;5.65;5.25;;;1.00;99.90;;;;;;5059940;28;20217;-75
2021/01/30 06:59:55;;;;;;;5.90;5.50;;;1.00;99.90;;;;;;5061751;28;20225;-74
2021/01/30 07:02:36;;;;;;;6.25;5.80;;;1.00;99.90;;;;;;5067007;28;20233;-74
2021/01/30 07:05:12;;;;;;;5.47;5.07;;;1.00;99.90;;;;;;5068392;28;20222;-75
2021/01/30 07:08:05;;;;;;;5.65;5.35;;;1.10;99.90;;;;;;5055867;28;20226;-75
2021/01/30 07:10:43;;;;;;;5.80;5.40;;;1.10;99.90;;;;;;5057902;28;20575;-74
2021/01/30 07:13:28;;;;;;;4.85;4.53;;;1.20;99.90;;;;;;5058413;28;20221;-75
2021/01/30 07:16:04;;;;;;;5.82;5.43;;;1.20;99.90;;;;;;5053964;28;20223;-73
2021/01/30 07:18:32;;;;;;;6.03;5.50;;;1.30;99.90;;;;;;5053373;28;20230;-74
2021/01/30 07:21:21;;;;;;;5.63;5.22;;;1.30;99.90;;;;;;5057056;28;20280;-74
2021/01/30 07:24:03;;;;;;;6.07;5.68;;;1.30;99.90;;;;;;5058262;28;20264;-73
2021/01/30 07:26:34;;;;;;;5.63;5.13;;;1.30;99.90;;;;;;5060848;28;20217;-74
2021/01/30 07:29:06;;;;;;;5.40;5.00;;;1.30;99.90;;;;;;5054465;28;20225;-75
2021/01/30 07:31:36;;;;;;;5.93;5.43;;;1.30;99.90;;;;;;5061784;28;20226;-75
2021/01/30 07:34:11;;;;;;;6.03;5.53;;;1.30;99.90;;;;;;5059093;28;20295;-75
2021/01/30 07:36:41;;;;;;;5.65;5.25;;;1.40;99.90;;;;;;5044484;28;20218;-74
2021/01/30 07:39:31;;;;;;;5.97;5.57;;;1.40;99.90;;;;;;5037763;28;20573;-74
2021/01/30 07:42:03;;;;;;;6.65;6.25;;;1.50;99.90;;;;;;5040571;28;20276;-74
2021/01/30 07:44:34;;;;;;;6.60;6.10;;;1.50;99.90;;;;;;5039012;28;20215;-74
2021/01/30 07:47:19;;;;;;;7.97;7.35;;;1.60;99.90;;;;;;5037769;28;20290;-74
2021/01/30 07:49:49;;;;;;;7.38;6.88;;;1.60;99.90;;;;;;5041838;28;20648;-74
2021/01/30 07:52:20;;;;;;;6.95;6.35;;;1.70;99.90;;;;;;5043821;28;20227;-75
2021/01/30 07:54:51;;;;;;;7.35;6.78;;;1.80;99.90;;;;;;5043084;28;20242;-74
2021/01/30 07:57:56;;;;;;;8.18;7.57;;;2.00;99.90;;;;;;5052402;28;20222;-74
2021/01/30 08:00:32;;;;;;;7.40;6.82;;;2.40;99.90;;;;;;5041522;28;20273;-72
2021/01/30 08:03:19;;;;;;;8.48;7.88;;;3.00;99.90;;;;;;5040071;28;20234;-75
2021/01/30 08:06:02;;;;;;;7.57;7.05;;;3.90;99.90;;;;;;5029694;28;20215;-74
2021/01/30 08:08:35;;;;;;;7.60;7.00;;;4.60;99.90;;;;;;5060656;28;20229;-74
2021/01/30 08:11:15;;;;;;;6.20;5.70;;;5.30;99.90;;;;;;5058428;28;20221;-75
2021/01/30 08:13:51;;;;;;;5.75;5.35;;;5.90;99.90;;;;;;5054707;28;20817;-73
2021/01/30 08:16:28;;;;;;;6.00;5.50;;;6.50;99.90;;;;;;5060889;28;20254;-74
2021/01/30 08:18:58;;;;;;;6.72;6.13;;;6.70;99.90;;;;;;5058032;28;20217;-74
2021/01/30 08:21:34;;;;;;;6.97;6.38;;;7.10;99.90;;;;;;5061869;28;20217;-75
2021/01/30 08:24:10;;;;;;;8.25;7.50;;;7.60;99.90;;;;;;5060080;28;20237;-73
2021/01/30 08:26:41;;;;;;;8.95;8.05;;;7.90;99.90;;;;;;5060757;28;20225;-76
2021/01/30 08:29:16;;;;;;;11.27;10.15;;;8.30;99.90;;;;;;5056956;28;20226;-73
2021/01/30 08:31:46;;;;;;;9.23;8.32;;;8.60;99.90;;;;;;5054291;28;20794;-73
2021/01/30 08:34:32;;;;;;;10.02;8.63;;;8.80;99.90;;;;;;5060863;28;21051;-75
2021/01/30 08:37:00;;;;;;;8.73;7.93;;;9.00;99.90;;;;;;5058225;28;20258;-75
2021/01/30 08:39:30;;;;;;;9.18;8.30;;;9.20;99.90;;;;;;5060353;28;20648;-74
2021/01/30 08:42:04;;;;;;;7.75;7.10;;;9.40;99.90;;;;;;5057924;28;21928;-74
2021/01/30 08:45:00;;;;;;;8.05;7.35;;;9.50;99.90;;;;;;5064354;28;20323;-74
2021/01/30 08:47:28;;;;;;;9.05;8.25;;;9.90;99.90;;;;;;5031842;28;20219;-73
2021/01/30 08:50:07;;;;;;;9.85;8.85;;;9.90;99.90;;;;;;5042721;28;20218;-74
2021/01/30 08:52:41;;;;;;;11.10;10.10;;;10.10;99.90;;;;;;5039492;28;20234;-75
2021/01/30 08:55:25;;;;;;;10.05;9.15;;;10.20;99.90;;;;;;5042431;28;20214;-72
2021/01/30 08:57:52;;;;;;;8.63;7.88;;;10.30;99.90;;;;;;5041342;28;20264;-72
2021/01/30 09:00:52;;;;;;;8.95;8.05;;;10.30;99.90;;;;;;5039366;28;20217;-74
2021/01/30 09:03:47;;;;;;;8.68;7.88;;;10.20;99.90;;;;;;5040746;28;20234;-73
2021/01/30 09:06:54;;;;;;;8.13;7.43;;;10.50;99.90;;;;;;5053118;28;20225;-74
2021/01/30 09:09:22;;;;;;;7.40;6.68;;;10.60;99.90;;;;;;5058771;28;20229;-73
2021/01/30 09:11:50;;;;;;;7.20;6.60;;;10.70;99.90;;;;;;5053506;28;20783;-73
2021/01/30 09:14:38;;;;;;;7.03;6.43;;;10.70;99.90;;;;;;5057810;28;20214;-73
2021/01/30 09:17:32;;;;;;;7.22;6.63;;;10.50;99.90;;;;;;5060196;28;20286;-73
2021/01/30 09:20:09;;;;;;;7.38;6.78;;;9.90;99.90;;;;;;5035148;28;21083;-74
2021/01/30 09:22:53;;;;;;;6.65;6.05;;;9.70;99.90;;;;;;5040785;28;20226;-73
2021/01/30 09:25:29;;;;;;;7.47;6.75;;;9.50;99.90;;;;;;5052187;28;20289;-73
2021/01/30 09:28:01;;;;;;;7.50;6.80;;;9.20;99.90;;;;;;5054946;28;20222;-73
2021/01/30 09:30:35;;;;;;;7.82;7.07;;;9.00;99.90;;;;;;5057848;28;20214;-74
2021/01/30 09:33:09;;;;;;;7.45;6.75;;;9.40;99.90;;;;;;5062136;28;20233;-73
2021/01/30 09:35:39;;;;;;;8.38;7.68;;;10.40;99.90;;;;;;5061870;28;20218;-73
2021/01/30 09:38:21;;;;;;;7.15;6.53;;;11.60;99.90;;;;;;5056609;28;20226;-73
2021/01/30 09:40:47;;;;;;;8.52;7.63;;;13.40;99.90;;;;;;5062614;28;20217;-72
2021/01/30 09:43:14;;;;;;;8.77;7.75;;;14.80;99.90;;;;;;5057149;28;20707;-73
2021/01/30 09:45:51;;;;;;;8.27;7.57;;;15.60;99.90;;;;;;5063005;28;20222;-72
2021/01/30 09:48:18;;;;;;;8.10;7.43;;;16.50;99.90;;;;;;5056127;28;20229;-73
2021/01/30 09:50:50;;;;;;;8.07;7.38;;;16.50;99.90;;;;;;5057107;28;20225;-73
2021/01/30 09:53:25;;;;;;;8.35;7.55;;;15.90;99.90;;;;;;5058242;28;20230;-73
2021/01/30 09:56:04;;;;;;;8.40;7.65;;;14.80;99.90;;;;;;5057723;28;20241;-73
2021/01/30 09:58:32;;;;;;;8.30;7.60;;;14.00;99.90;;;;;;5059048;28;20703;-73
2021/01/30 10:01:05;;;;;;;8.60;7.82;;;13.30;99.90;;;;;;5059019;28;20218;-74
2021/01/30 10:03:36;;;;;;;9.45;8.35;;;12.50;99.90;;;;;;5059178;28;23399;-73
2021/01/30 10:06:11;;;;;;;9.60;8.70;;;11.80;99.90;;;;;;5063833;28;20244;-73
2021/01/30 10:08:38;;;;;;;9.18;7.90;;;11.80;99.90;;;;;;5058612;28;21016;-73
2021/01/30 10:11:07;;;;;;;9.75;8.82;;;11.50;99.90;;;;;;5062018;28;20303;-74
2021/01/30 10:13:35;;;;;;;7.85;7.15;;;11.40;99.90;;;;;;5065586;28;20229;-74
2021/01/30 10:16:03;;;;;;;8.93;8.02;;;10.80;99.90;;;;;;5065507;28;20230;-74
2021/01/30 10:18:33;;;;;;;8.57;7.75;;;10.80;99.90;;;;;;5058847;28;20275;-74
2021/01/30 10:21:01;;;;;;;8.43;6.72;;;11.00;99.90;;;;;;5061649;28;20305;-73
2021/01/30 10:23:34;;;;;;;7.38;6.68;;;11.20;99.90;;;;;;5061716;28;20829;-74
2021/01/30 10:26:09;;;;;;;7.50;6.80;;;11.30;99.90;;;;;;5062761;28;20229;-74
2021/01/30 10:28:48;;;;;;;7.72;7.03;;;11.30;99.90;;;;;;5060014;28;20237;-74
2021/01/30 10:31:19;;;;;;;7.07;6.35;;;11.50;99.90;;;;;;5064431;28;20205;-74
2021/01/30 10:33:50;;;;;;;7.60;6.90;;;11.60;99.90;;;;;;5058483;28;20227;-74
2021/01/30 10:36:20;;;;;;;7.57;6.97;;;12.00;99.90;;;;;;5064302;28;20708;-74
2021/01/30 10:38:49;;;;;;;7.72;7.03;;;12.30;99.90;;;;;;5061869;28;20234;-74
2021/01/30 10:41:18;;;;;;;7.32;6.72;;;12.70;99.90;;;;;;5064389;28;20226;-73
2021/01/30 10:43:46;;;;;;;7.30;6.70;;;12.90;99.90;;;;;;5065715;28;20283;-74
2021/01/30 10:46:28;;;;;;;10.07;6.57;;;13.10;99.90;;;;;;5059040;28;20890;-74
2021/01/30 10:49:01;;;;;;;6.20;5.68;;;13.30;99.90;;;;;;5061324;28;20232;-73
2021/01/30 10:51:28;;;;;;;7.38;6.72;;;13.10;99.90;;;;;;5036849;28;20231;-74
2021/01/30 10:54:24;;;;;;;6.78;6.18;;;12.50;99.90;;;;;;5042067;28;20243;-73
2021/01/30 10:57:21;;;;;;;6.22;5.63;;;12.00;99.90;;;;;;5060713;28;20214;-74
2021/01/30 10:59:51;;;;;;;6.97;6.28;;;11.60;99.90;;;;;;5059381;28;20230;-73
2021/01/30 11:02:41;;;;;;;6.93;5.72;;;11.20;99.90;;;;;;5062453;28;20789;-74
2021/01/30 11:05:22;;;;;;;7.18;6.47;;;10.90;99.90;;;;;;5059153;28;20217;-74
2021/01/30 11:07:52;;;;;;;6.60;6.00;;;10.40;99.90;;;;;;5047831;28;20218;-74
2021/01/30 11:10:23;;;;;;;7.15;6.55;;;10.20;99.90;;;;;;5041625;28;20226;-73
2021/01/30 11:12:50;;;;;;;7.25;6.65;;;9.90;99.90;;;;;;5041674;28;20226;-74
2021/01/30 11:15:20;;;;;;;6.38;5.88;;;9.70;99.90;;;;;;5041213;28;20219;-74
2021/01/30 11:17:48;;;;;;;7.13;6.53;;;9.40;99.90;;;;;;5043409;28;20229;-74
2021/01/30 11:20:38;;;;;;;7.32;6.63;;;9.40;99.90;;;;;;5043641;28;20226;-73
2021/01/30 11:23:05;;;;;;;6.85;6.20;;;9.40;99.90;;;;;;5039545;28;20227;-73
2021/01/30 11:25:35;;;;;;;6.82;6.22;;;9.50;99.90;;;;;;5049885;28;20304;-74
2021/01/30 11:28:02;;;;;;;6.32;5.82;;;9.40;99.90;;;;;;5049330;28;20230;-74
2021/01/30 11:30:29;;;;;;;7.38;6.75;;;9.40;99.90;;;;;;5037486;28;20238;-74
2021/01/30 11:32:59;;;;;;;7.00;6.32;;;9.60;99.90;;;;;;5041936;28;20259;-73
2021/01/30 11:35:29;;;;;;;7.60;6.90;;;9.80;99.90;;;;;;5039718;28;20633;-74
2021/01/30 11:37:58;;;;;;;7.50;6.80;;;10.00;99.90;;;;;;5041071;28;20273;-73
2021/01/30 11:40:25;;;;;;;6.65;6.05;;;10.20;99.90;;;;;;5040018;28;20704;-74
2021/01/30 11:42:51;;;;;;;6.40;5.90;;;10.40;99.90;;;;;;5044317;28;20225;-74
2021/01/30 11:45:18;;;;;;;7.95;7.25;;;10.50;99.90;;;;;;5037675;28;20898;-74
2021/01/30 11:47:44;;;;;;;11.23;7.18;;;10.50;99.90;;;;;;5037331;28;20234;-73
2021/01/30 11:50:12;;;;;;;7.00;6.40;;;10.60;99.90;;;;;;5043584;28;20280;-74
2021/01/30 11:52:39;;;;;;;8.00;7.20;;;10.90;99.90;;;;;;5041843;28;20230;-73
2021/01/30 11:55:07;;;;;;;8.80;8.10;;;11.10;99.90;;;;;;5039506;28;20277;-74
2021/01/30 11:57:33;;;;;;;9.10;8.25;;;11.10;99.90;;;;;;5041812;28;20701;-73
2021/01/30 12:00:00;;;;;;;7.65;6.97;;;11.10;99.90;;;;;;5035079;28;20225;-74
2021/01/30 12:02:36;;;;;;;7.25;6.60;;;10.70;99.90;;;;;;5039363;28;20219;-74
2021/01/30 12:05:03;;;;;;;7.57;6.88;;;10.50;99.90;;;;;;5040976;28;20253;-74
2021/01/30 12:07:30;;;;;;;7.68;6.97;;;10.40;99.90;;;;;;5039624;28;20273;-74
2021/01/30 12:09:57;;;;;;;7.03;6.30;;;10.40;99.90;;;;;;5043875;28;20601;-73
2021/01/30 12:12:23;;;;;;;6.63;6.03;;;10.50;99.90;;;;;;5040716;28;20273;-74
2021/01/30 12:14:50;;;;;;;6.43;5.93;;;10.30;99.90;;;;;;5043742;28;20219;-74
2021/01/30 12:17:30;;;;;;;6.97;6.40;;;9.90;99.90;;;;;;5036939;28;20215;-73
2021/01/30 12:19:57;;;;;;;6.55;6.05;;;9.50;99.90;;;;;;5037233;28;20226;-74
2021/01/30 12:22:23;;;;;;;7.90;7.05;;;9.20;99.90;;;;;;5041975;28;20230;-74
2021/01/30 12:24:51;;;;;;;7.00;6.20;;;9.00;99.90;;;;;;5040074;28;20723;-74
2021/01/30 12:27:18;;;;;;;7.18;6.55;;;8.90;99.90;;;;;;5039807;28;20724;-74
2021/01/30 12:29:45;;;;;;;7.13;6.53;;;8.80;99.90;;;;;;5036901;28;20227;-74
2021/01/30 12:32:12;;;;;;;6.68;5.97;;;8.80;99.90;;;;;;5040846;28;20223;-74
2021/01/30 12:34:38;;;;;;;6.95;6.35;;;8.70;99.90;;;;;;5039666;28;20248;-74
2021/01/30 12:37:06;;;;;;;6.57;6.00;;;8.70;99.90;;;;;;5043471;28;20238;-74
2021/01/30 12:39:32;;;;;;;7.05;6.35;;;8.70;99.90;;;;;;5040803;28;20234;-74
2021/01/30 12:42:00;;;;;;;7.40;6.55;;;8.70;99.90;;;;;;5058163;28;20229;-73
2021/01/30 12:44:26;;;;;;;6.70;6.10;;;8.60;99.90;;;;;;5063726;28;20225;-74
2021/01/30 12:46:53;;;;;;;8.32;7.45;;;8.60;99.90;;;;;;5055786;28;20599;-72
2021/01/30 12:49:20;;;;;;;7.53;6.82;;;8.70;99.90;;;;;;5056804;28;20222;-73
2021/01/30 12:51:47;;;;;;;6.85;6.25;;;8.70;99.90;;;;;;5059380;28;21984;-74
2021/01/30 12:54:17;;;;;;;7.05;6.32;;;8.70;99.90;;;;;;5061424;28;20238;-74
2021/01/30 12:56:44;;;;;;;6.70;6.10;;;8.60;99.90;;;;;;5058336;28;20299;-74
2021/01/30 12:59:12;;;;;;;7.15;6.55;;;8.60;99.90;;;;;;5060465;28;20218;-74
2021/01/30 13:01:38;;;;;;;6.07;5.50;;;8.50;99.90;;;;;;5037685;28;20226;-73
2021/01/30 13:04:05;;;;;;;6.43;5.82;;;8.50;99.90;;;;;;5042996;28;20225;-74
2021/01/30 13:06:32;;;;;;;6.13;5.63;;;8.50;99.90;;;;;;5038327;28;20288;-74
2021/01/30 13:08:59;;;;;;;6.10;5.60;;;8.40;99.90;;;;;;5041497;28;20233;-74
2021/01/30 13:11:25;;;;;;;6.22;5.63;;;8.40;99.90;;;;;;5042576;28;20635;-74
2021/01/30 13:13:52;;;;;;;4.90;4.50;;;8.40;99.90;;;;;;5046807;28;20713;-74
2021/01/30 13:16:20;;;;;;;6.07;5.50;;;8.30;99.90;;;;;;5042872;28;20214;-74
2021/01/30 13:18:46;;;;;;;5.97;5.47;;;8.30;99.90;;;;;;5040239;28;20744;-74
2021/01/30 13:21:13;;;;;;;6.80;5.63;;;8.20;99.90;;;;;;5040928;28;20220;-74